Neptune — WCT5064 — position and weather

sailwx.info

Track history (hours):
 
Tides and Currents Weather Stations Pressure Air Temp Water Temp Dewpoint Dewpoint Depression Visibility Wind Speed Wind Dir Waves Ship Positions

Neptune

Owner: Dann Ocean Towing, TAMPA, FL. More information available from US FCC via Universal Licensing System and Coast Guard Vessel Documentation Center.

Last reported at 2018-Jun-14 05:36 UTC. Time now 2018-Jun-19 08:26 UTC.
Position N 32°45' W 079°52'.

Length 27 m; draft 12 m.

Type: Tow > 200 m length. MMSI: 368542000.

Date/timePositionNaut miles runAvg speedWind from/ knotsBaromVisibWave heightAir tempDewpointWater temp
2018-Jun-14 05:36N 32°45' W 079°52'1 9.9
2018-Jun-14 05:29N 32°46' W 079°53'1 1.2
2018-Jun-14 04:22N 32°45' W 079°54'0 0.0
2018-Jun-14 04:00N 32°45' W 079°54'0 0.0
2018-Jun-14 03:29N 32°45' W 079°54'0 0.0
2018-Jun-14 03:00N 32°45' W 079°54'0 0.0
2018-Jun-14 02:31N 32°45' W 079°54'0 0.0
2018-Jun-14 02:00N 32°45' W 079°54'0 0.0
2018-Jun-14 00:12N 32°45' W 079°54'0 0.0
2018-Jun-13 23:47N 32°45' W 079°54'0 0.0
2018-Jun-13 23:30N 32°45' W 079°54'1 2.6
2018-Jun-13 23:00N 32°46' W 079°53'3 5.8
2018-Jun-13 22:30N 32°48' W 079°55'2 2.2
2018-Jun-13 21:47N 32°50' W 079°56'2 6.2
2018-Jun-13 21:29N 32°48' W 079°55'3 5.2
2018-Jun-13 20:59N 32°45' W 079°55'0 0.1
2018-Jun-13 20:14N 32°45' W 079°55'0 0.0
2018-Jun-13 19:49N 32°45' W 079°55'0 0.0
2018-Jun-13 19:30N 32°45' W 079°55'4 5.8
2018-Jun-13 18:51N 32°44' W 079°50'4 1.2
2018-Jun-13 15:47N 32°47' W 079°54'2 7.6
2018-Jun-13 15:30N 32°48' W 079°55'2 2.8
2018-Jun-13 14:47N 32°50' W 079°57'1 0.3
2018-Jun-13 12:57N 32°50' W 079°56'3 6.6
2018-Jun-13 12:30N 32°47' W 079°55'2 3.2
2018-Jun-13 12:00N 32°45' W 079°54'0 0.1
2018-Jun-13 10:42N 32°45' W 079°54'0 0.0
2018-Jun-13 10:30N 32°45' W 079°54'0 0.0
2018-Jun-13 09:22N 32°45' W 079°54'0 0.0
2018-Jun-13 09:00N 32°45' W 079°54'0 0.0
2018-Jun-13 07:48N 32°45' W 079°54'0 0.0
2018-Jun-13 07:01N 32°45' W 079°54'0 2.3
2018-Jun-13 07:00N 32°45' W 079°54'1 1.7
2018-Jun-13 06:31N 32°46' W 079°53'1 2.4
2018-Jun-13 05:56N 32°45' W 079°52'1 1.9
2018-Jun-13 05:30N 32°45' W 079°51'1 1.8
2018-Jun-13 04:59N 32°44' W 079°50'3 1.6
2018-Jun-13 03:16N 32°45' W 079°53'1 4.0
2018-Jun-13 02:59N 32°45' W 079°54'0 0.0
2018-Jun-13 02:28N 32°45' W 079°54'0 0.0
2018-Jun-13 02:00N 32°45' W 079°54'1 1.1
2018-Jun-13 01:30N 32°46' W 079°55'4 7.5
2018-Jun-13 01:00N 32°49' W 079°56'1 1.9
2018-Jun-13 00:30N 32°50' W 079°57'0 0.0
2018-Jun-12 21:51N 32°50' W 079°57'0 0.0
2018-Jun-12 19:25N 32°50' W 079°56'0 0.0
2018-Jun-12 18:18N 32°50' W 079°57'1 1.1
2018-Jun-12 17:45N 32°50' W 079°56'0 0.0
2018-Jun-12 17:30N 32°50' W 079°56'0 0.0
2018-Jun-12 16:55N 32°50' W 079°56'0 0.0
2018-Jun-12 16:30N 32°50' W 079°56'0 0.0
2018-Jun-12 16:00N 32°50' W 079°56'0 0.2
2018-Jun-12 15:29N 32°50' W 079°56'3 7.3
2018-Jun-12 15:00N 32°47' W 079°54'2 0.1
2018-Jun-11 20:28N 32°46' W 079°53'2 3.6
2018-Jun-11 20:00N 32°45' W 079°55'0 0.3
2018-Jun-11 19:30N 32°46' W 079°55'2 4.2
2018-Jun-11 19:00N 32°46' W 079°52'0 0.0
2018-Jun-11 15:27N 32°45' W 079°52'1 1.5
2018-Jun-11 15:00N 32°46' W 079°53'1 1.4
2018-Jun-11 14:30N 32°45' W 079°54'0 0.2
2018-Jun-11 14:00N 32°45' W 079°54'2 3.6
2018-Jun-11 13:28N 32°45' W 079°52'  
2018-Jun-08 14:17N 32°45' W 079°53'1 3.0
2018-Jun-08 14:00N 32°45' W 079°54'1 2.0
2018-Jun-08 13:30N 32°46' W 079°53'11 0.3
2018-Jun-07 06:37N 32°40' W 079°42'0 0.0
2018-Jun-07 06:29N 32°40' W 079°42'0 0.0
2018-Jun-07 05:46N 32°40' W 079°42'  
Track history (hours):
 
Tides and Currents Weather Stations Pressure Air Temp Water Temp Dewpoint Dewpoint Depression Visibility Wind Speed Wind Dir Waves Ship Positions

Neptune

Owner: Dann Ocean Towing, TAMPA, FL. More information available from US FCC via Universal Licensing System and Coast Guard Vessel Documentation Center.

Last reported at 2018-Jun-14 05:36 UTC. Time now 2018-Jun-19 08:26 UTC.
Position N 32°45' W 079°52'.

Length 27 m; draft 12 m.

Type: Tow > 200 m length. MMSI: 368542000.

Date/timePositionNaut miles runAvg speedWind from/ knotsBaromVisibWave heightAir tempDewpointWater temp
2018-Jun-14 05:36N 32°45' W 079°52'1 9.9
2018-Jun-14 05:29N 32°46' W 079°53'1 1.2
2018-Jun-14 04:22N 32°45' W 079°54'0 0.0
2018-Jun-14 04:00N 32°45' W 079°54'0 0.0
2018-Jun-14 03:29N 32°45' W 079°54'0 0.0
2018-Jun-14 03:00N 32°45' W 079°54'0 0.0
2018-Jun-14 02:31N 32°45' W 079°54'0 0.0
2018-Jun-14 02:00N 32°45' W 079°54'0 0.0
2018-Jun-14 00:12N 32°45' W 079°54'0 0.0
2018-Jun-13 23:47N 32°45' W 079°54'0 0.0
2018-Jun-13 23:30N 32°45' W 079°54'1 2.6
2018-Jun-13 23:00N 32°46' W 079°53'3 5.8
2018-Jun-13 22:30N 32°48' W 079°55'2 2.2
2018-Jun-13 21:47N 32°50' W 079°56'2 6.2
2018-Jun-13 21:29N 32°48' W 079°55'3 5.2
2018-Jun-13 20:59N 32°45' W 079°55'0 0.1
2018-Jun-13 20:14N 32°45' W 079°55'0 0.0
2018-Jun-13 19:49N 32°45' W 079°55'0 0.0
2018-Jun-13 19:30N 32°45' W 079°55'4 5.8
2018-Jun-13 18:51N 32°44' W 079°50'4 1.2
2018-Jun-13 15:47N 32°47' W 079°54'2 7.6
2018-Jun-13 15:30N 32°48' W 079°55'2 2.8
2018-Jun-13 14:47N 32°50' W 079°57'1 0.3
2018-Jun-13 12:57N 32°50' W 079°56'3 6.6
2018-Jun-13 12:30N 32°47' W 079°55'2 3.2
2018-Jun-13 12:00N 32°45' W 079°54'0 0.1
2018-Jun-13 10:42N 32°45' W 079°54'0 0.0
2018-Jun-13 10:30N 32°45' W 079°54'0 0.0
2018-Jun-13 09:22N 32°45' W 079°54'0 0.0
2018-Jun-13 09:00N 32°45' W 079°54'0 0.0
2018-Jun-13 07:48N 32°45' W 079°54'0 0.0
2018-Jun-13 07:01N 32°45' W 079°54'0 2.3
2018-Jun-13 07:00N 32°45' W 079°54'1 1.7
2018-Jun-13 06:31N 32°46' W 079°53'1 2.4
2018-Jun-13 05:56N 32°45' W 079°52'1 1.9
2018-Jun-13 05:30N 32°45' W 079°51'1 1.8
2018-Jun-13 04:59N 32°44' W 079°50'3 1.6
2018-Jun-13 03:16N 32°45' W 079°53'1 4.0
2018-Jun-13 02:59N 32°45' W 079°54'0 0.0
2018-Jun-13 02:28N 32°45' W 079°54'0 0.0
2018-Jun-13 02:00N 32°45' W 079°54'1 1.1
2018-Jun-13 01:30N 32°46' W 079°55'4 7.5
2018-Jun-13 01:00N 32°49' W 079°56'1 1.9
2018-Jun-13 00:30N 32°50' W 079°57'0 0.0
2018-Jun-12 21:51N 32°50' W 079°57'0 0.0
2018-Jun-12 19:25N 32°50' W 079°56'0 0.0
2018-Jun-12 18:18N 32°50' W 079°57'1 1.1
2018-Jun-12 17:45N 32°50' W 079°56'0 0.0
2018-Jun-12 17:30N 32°50' W 079°56'0 0.0
2018-Jun-12 16:55N 32°50' W 079°56'0 0.0
2018-Jun-12 16:30N 32°50' W 079°56'0 0.0
2018-Jun-12 16:00N 32°50' W 079°56'0 0.2
2018-Jun-12 15:29N 32°50' W 079°56'3 7.3
2018-Jun-12 15:00N 32°47' W 079°54'2 0.1
2018-Jun-11 20:28N 32°46' W 079°53'2 3.6
2018-Jun-11 20:00N 32°45' W 079°55'0 0.3
2018-Jun-11 19:30N 32°46' W 079°55'2 4.2
2018-Jun-11 19:00N 32°46' W 079°52'0 0.0
2018-Jun-11 15:27N 32°45' W 079°52'1 1.5
2018-Jun-11 15:00N 32°46' W 079°53'1 1.4
2018-Jun-11 14:30N 32°45' W 079°54'0 0.2
2018-Jun-11 14:00N 32°45' W 079°54'2 3.6
2018-Jun-11 13:28N 32°45' W 079°52'  
2018-Jun-08 14:17N 32°45' W 079°53'1 3.0
2018-Jun-08 14:00N 32°45' W 079°54'1 2.0
2018-Jun-08 13:30N 32°46' W 079°53'11 0.3
2018-Jun-07 06:37N 32°40' W 079°42'0 0.0
2018-Jun-07 06:29N 32°40' W 079°42'0 0.0
2018-Jun-07 05:46N 32°40' W 079°42'  

Dump ship's entire track history